ADDS METAR Data INFO
IDs: Format: Raw Decoded Include TAF

Data at: 1417 UTC 12 Dec 2017

KJMS 121356Z AUTO 24008KT 10SM CLR M04/M06 A3003 RMK AO2 SLP196 T10441056
KJMS 121256Z AUTO 22007KT 10SM CLR M04/M06 A3006 RMK AO2 PRESFR SLP207 T10441056
KJMS 121156Z AUTO 24008KT 10SM SCT023 M04/M05 A3010 RMK AO2 SLP219 T10391050 11033 21106 58029
KJMS 121056Z AUTO 26007KT 10SM OVC021 M04/M05 A3014 RMK AO2 SLP231 T10391050
KJMS 121041Z AUTO 26007KT 10SM BKN021 BKN055 M04/M06 A3015 RMK AO2 T10441056
KJMS 120956Z AUTO 27008KT 10SM OVC055 M04/M06 A3017 RMK AO2 SLP242 T10441061
KJMS 120856Z AUTO 26008KT 10SM OVC050 M04/M06 A3019 RMK AO2 SLP248 T10391056 58027
KJMS 120827Z AUTO 25006KT 10SM SCT018 OVC055 M05/M07 A3020 RMK AO2 T10501067
KJMS 120756Z AUTO 25006KT 10SM OVC019 M07/M08 A3022 RMK AO2 SLP261 T10671083
KJMS 120656Z AUTO 22003KT 10SM BKN023 M10/M11 A3025 RMK AO2 SLP273 T11001111
KJMS 120556Z AUTO 25004KT 10SM CLR M10/M12 A3027 RMK AO2 SLP280 T11001117 11083 21106 400441106 58011
KJMS 120456Z AUTO 27007KT 10SM CLR M10/M12 A3029 RMK AO2 SLP285 T11001117
KJMS 120356Z AUTO 26003KT 10SM CLR M11/M12 A3030 RMK AO2 SLP287 T11061117
KJMS 120256Z AUTO 30004KT 10SM CLR M09/M12 A3031 RMK AO2 SLP288 T10941117 58002
KJMS 120156Z AUTO 31004KT 10SM CLR M09/M11 A3032 RMK AO2 SLP291 T10941111
KJMS 120056Z AUTO 31006KT 10SM CLR M09/M11 A3032 RMK AO2 SLP290 T10941111
KJMS 112356Z AUTO 33007KT 10SM CLR M08/M10 A3031 RMK AO2 SLP288 T10831100 11044 21083 51019
KJMS 112256Z AUTO 34009KT 10SM FEW020 M07/M09 A3030 RMK AO2 SLP283 T10671094
KJMS 112156Z AUTO 34014KT 10SM SCT019 M06/M10 A3029 RMK AO2 SLP277 T10611100
KJMS 112056Z AUTO 34017KT 10SM BKN020 M05/M09 A3025 RMK AO2 PK WND 34027/2019 SLP265 T10501089 51022
KJMS 111956Z AUTO 35019G26KT 10SM OVC018 M05/M09 A3023 RMK AO2 PK WND 35026/1911 SLP257 T10501089
KJMS 111856Z AUTO 34021G28KT 10SM BKN018 M05/M08 A3021 RMK AO2 PK WND 35030/1808 SLP251 T10501083
KJMS 111829Z AUTO 35024KT 10SM SCT017 M05/M08 A3020 RMK AO2 PK WND 35030/1808 T10501083
KJMS 111756Z AUTO 35023G31KT 10SM BKN016 M04/M07 A3018 RMK AO2 PK WND 34034/1707 SLP240 T10441072 10028 21044 53052
KJMS 111719Z AUTO 35026G32KT OVC015 M03/M06 A3015 RMK AO2 PK WND 34034/1707 T10331061 PWINO FZRANO $
KJMS 111656Z AUTO 36019G32KT OVC012 M03/M05 A3013 RMK AO2 PK WND 34036/1639 SLP221 T10281050 PWINO FZRANO $
KJMS 111556Z AUTO 36025G34KT 10SM BKN012 OVC021 M01/M03 A3007 RMK AO2 PK WND 36034/1553 PRESRR SLP202 T10111028
KJMS 111456Z AUTO 36024G35KT 10SM OVC013 01/M02 A3002 RMK AO2 PK WND 36036/1446 PRESRR SLP182 T00061017 53057
KJMS 111423Z AUTO 36025G32KT 10SM BKN013 BKN019 OVC024 01/M01 A2999 RMK AO2 PK WND 35032/1402 T00111011
KJMS 111356Z AUTO 35023G31KT 10SM BKN017 OVC024 02/M01 A2996 RMK AO2 PK WND 36033/1328 PRESRR SLP162 T00171006
KJMS 111256Z AUTO 34021G29KT 10SM BKN017 OVC022 03/01 A2991 RMK AO2 PK WND 33033/1222 PRESRR SLP142 T00280006
KJMS 111246Z AUTO 34022G30KT 10SM BKN018 OVC022 03/01 A2989 RMK AO2 PK WND 33033/1222 T00280006
KJMS 111156Z AUTO 33020G29KT 10SM OVC014 03/01 A2985 RMK AO2 PK WND 32030/1125 RAB25E35 SLP122 P0000 60001 70001 T00280011 10044 20022 53033
KJMS 111056Z AUTO 32023G36KT 10SM OVC014 03/01 A2980 RMK AO2 PK WND 32036/1052 SLP106 T00280011
KJMS 111017Z AUTO 32024G31KT 10SM OVC013 03/01 A2977 RMK AO2 PK WND 32033/0958 T00280011
KJMS 110956Z AUTO 32023G29KT 10SM OVC015 03/01 A2976 RMK AO2 PK WND 32029/0949 RAE30 SLP093 P0000 T00280011
KJMS 110856Z AUTO 30021G26KT 10SM -RA BKN024 OVC035 03/00 A2975 RMK AO2 PK WND 30036/0800 RAB0757E19B52UPB19E22B42E52 SLP087 P0001 60001 T00330000 55009
KJMS 110756Z AUTO 30027G37KT 10SM SCT044 BKN070 BKN090 04/M02 A2974 RMK AO2 PK WND 30037/0753 SLP084 T00441017
KJMS 110656Z AUTO 27016KT 10SM BKN110 04/M02 A2974 RMK AO2 SLP084 T00441022
KJMS 110556Z AUTO 27012KT 10SM FEW070 BKN095 BKN110 04/M02 A2977 RMK AO2 SLP097 60000 T00391022 10050 20017 400501033 58027
KJMS 110456Z AUTO 29014KT 10SM FEW090 BKN120 04/M02 A2981 RMK AO2 SLP109 T00441017
KJMS 110356Z AUTO 27010KT 10SM OVC110 03/M01 A2983 RMK AO2 SLP118 T00331011
KJMS 110256Z AUTO 27008KT 10SM BKN048 BKN055 OVC090 03/M01 A2986 RMK AO2 RAB08E56 SLP128 P0000 60000 T00331011 58024